Odessa, Minnesota
Current Conditions -  °F | °C
As of 7:34 AM on Friday 28 Nov 2014 (Local Time) from KVVV Reporting Station
Broken Clouds Broken Clouds  
Wind Chill: -5°   Ceiling: 11000
Heat Index:   Visibility: 10mi
Dew Point:   Wind: 9mph
Humidity: 79%   Direction: 110°ESE
Pressure: 29.91"   Gusts: NA
Location:  45.26°N, 96.33°W
Report Text: KVVV 281334Z AUTO 11008KT 10SM BKN110 M13/M16 A2991 RMK AO2
Loading
Personal Weather Stations






























Interactive Weather Map New forecast layout! Learn more

10-Day Weather Forecast

Advertisements
Track Severe Weather on mobile